Mattapoisett, MA (02739)

12:12 AM EDT on July 30, 2016 (GMT -0400)
Camí de sa Torre | | Change Station

Elev 0 ft 41.66 °N, 70.80 °W | Updated 9 minutes ago

Clear
Clear
70.0 °F
Feels Like 70.0 °F
N
0.6
Wind Variable Wind from West
Gusts 1.2 mph

Today
High -- | Low -- °F
--% Chance of Precip.
Yesterday
High -- | Low -- °F
Precip. -- in
Pressure 29.90 in
Visibility 5.0 miles
Clouds Clear
Dew Point 69 °F
Humidity 98%
Rainfall in
Snow Depth Not available.
5:36 AM 8:02 PM
Waning Crescent, 16% visible
METAR KEWB 300353Z AUTO 00000KT 5SM BR CLR 20/19 A2990 RMK AO2 SLP125 T02000189
Pressure 29.90 in
Visibility 5.0 miles
Clouds Clear
Dew Point 69 °F
Humidity 98%
Rainfall in
Snow Depth Not available.
5:36 AM 8:02 PM
Waning Crescent, 16% visible
METAR KEWB 300353Z AUTO 00000KT 5SM BR CLR 20/19 A2990 RMK AO2 SLP125 T02000189

10-Day Weather Forecast

Almanac

Astronomy

Jul. 30, 2016 Rise Set
Actual Time
Civil Twilight
Nautical Twilight
Astronomical Twilight
Moon
Length of Visible Light
Length of Day
Tomorrow will be .
, % of the Moon is Illuminated

Today's Extremes

State Highs State Lows

Community

WunderPhotos

Upload Photos

1,928,505 photos uploaded!

WunderBlog® & News

Nearby

Air Quality

  Air Quality AQ Index Pollutant
Not available.

Snow Depth

Station Depth Elevation

Earthquake Activity

City Distance Mag. Time & Date
Minimum magnitude displayed is 2.5.

Coastal Water Temperatures

Place Temperature

Stations

Nearby Weather Stations

Station Location Temp. Windchill Dew Point Humidity Wind Precip. Elev Updated Type
                   

Watches & Warnings

There are currently no watches in effect.